Terminal Aerodrome Forecast
Issued by NWS Twin Cities, MN

Home | Current Version | Previous Version | Text Only | Print | Product List | Glossary Off
Versions: 1 2 3 4 5 6 7 8 9 10 11 12 13 14 15 16 17 18 19 20 21 22 23 24 25 26 27 28 29 30

619
FTUS43 KMPX 280846 AAA
TAFMSP
TAF AMD
KMSP 280846Z 2809/2912 01009KT P6SM OVC008
     FM281600 03009KT P6SM VCSH OVC013
     FM290000 03005KT P6SM SCT018 OVC035=

USA.gov is the U.S. government's official web portal to all federal, state and local government web resources and services.